createdAt,value
2023-02-12T00:00:03.951Z,11.45
2023-02-12T00:02:30.890Z,11.07
2023-02-12T00:04:57.676Z,10.68
2023-02-12T00:07:24.456Z,10.35
2023-02-12T00:09:51.209Z,11.18
2023-02-12T00:12:17.964Z,11.30
2023-02-12T00:14:45.193Z,10.88
2023-02-12T00:17:11.939Z,10.88
2023-02-12T00:19:38.673Z,11.43
2023-02-12T00:22:05.381Z,10.55
2023-02-12T00:24:32.571Z,9.88
2023-02-12T00:26:59.362Z,9.27
2023-02-12T00:29:26.081Z,10.15
2023-02-12T00:31:53.000Z,10.48
2023-02-12T00:34:19.831Z,10.23
2023-02-12T00:36:46.578Z,10.18
2023-02-12T00:39:13.279Z,11.50
2023-02-12T00:41:40.025Z,12.40
2023-02-12T00:44:06.740Z,10.18
2023-02-12T00:46:33.503Z,10.93
2023-02-12T00:49:00.331Z,10.43
2023-02-12T00:51:27.158Z,10.55
2023-02-12T00:53:53.962Z,10.60
2023-02-12T00:56:20.824Z,11.20
2023-02-12T00:58:47.556Z,10.45
2023-02-12T01:01:14.428Z,11.52
2023-02-12T01:03:41.248Z,10.88
2023-02-12T01:06:08.398Z,10.80
2023-02-12T01:08:35.234Z,11.48
2023-02-12T01:11:03.610Z,6.70
2023-02-12T01:13:31.852Z,6.22
2023-02-12T01:16:22.617Z,6.32
2023-02-12T01:18:51.788Z,6.50
2023-02-12T01:21:23.692Z,6.10
2023-02-12T01:23:50.549Z,5.43
2023-02-12T01:26:19.002Z,5.90
2023-02-12T01:28:50.746Z,5.40
2023-02-12T01:33:51.489Z,5.40
2023-02-12T01:36:18.642Z,5.20
2023-02-12T01:38:45.574Z,5.53
2023-02-12T01:41:27.785Z,5.22
2023-02-12T01:44:13.350Z,4.80
2023-02-12T01:46:40.168Z,4.43
2023-02-12T01:49:11.921Z,4.68
2023-02-12T01:54:08.530Z,4.57
2023-02-12T01:56:35.670Z,4.60
2023-02-12T01:59:02.579Z,3.80
2023-02-12T02:01:32.268Z,3.88
2023-02-12T02:04:07.892Z,3.70
2023-02-12T02:06:39.960Z,2.97
2023-02-12T02:09:06.738Z,3.47
2023-02-12T02:11:51.931Z,3.28
2023-02-12T02:14:34.233Z,3.10
2023-02-12T02:17:15.505Z,3.03
2023-02-12T02:20:09.822Z,3.40
2023-02-12T02:23:09.126Z,3.28
2023-02-12T02:25:50.826Z,2.97
2023-02-12T02:28:32.569Z,3.10
2023-02-12T02:33:56.300Z,3.03
2023-02-12T02:36:36.919Z,3.80
2023-02-12T02:39:16.515Z,3.40
2023-02-12T02:42:40.540Z,3.17
2023-02-12T02:45:23.532Z,4.13
2023-02-12T02:47:55.925Z,3.28
2023-02-12T02:50:26.045Z,3.10
2023-02-12T02:53:02.005Z,3.30
2023-02-12T02:55:35.656Z,3.30
2023-02-12T02:58:25.810Z,2.97
2023-02-12T03:01:00.999Z,3.10
2023-02-12T03:03:38.018Z,2.80
2023-02-12T03:06:10.547Z,2.50
2023-02-12T03:08:46.917Z,3.13
2023-02-12T03:11:22.687Z,2.92
2023-02-12T03:13:55.748Z,2.90
2023-02-12T03:16:33.773Z,3.28
2023-02-12T03:19:03.515Z,2.85
2023-02-12T03:21:40.490Z,2.80
2023-02-12T03:24:21.747Z,3.00
2023-02-12T03:27:14.699Z,2.38
2023-02-12T03:29:41.445Z,3.03
2023-02-12T03:32:26.397Z,2.67
2023-02-12T03:35:15.468Z,2.97
2023-02-12T03:37:47.568Z,2.67
2023-02-12T03:40:35.242Z,2.40
2023-02-12T03:43:08.557Z,2.70
2023-02-12T03:45:35.267Z,3.08
2023-02-12T03:48:01.973Z,3.20
2023-02-12T03:50:34.740Z,2.83
2023-02-12T03:53:01.461Z,3.15
2023-02-12T03:55:28.160Z,3.38
2023-02-12T03:58:00.897Z,3.45
2023-02-12T04:00:28.403Z,3.17
2023-02-12T04:02:55.549Z,3.33
2023-02-12T04:05:25.686Z,3.20
2023-02-12T04:07:55.514Z,3.25
2023-02-12T04:10:32.749Z,3.05
2023-02-12T04:13:11.581Z,3.28
2023-02-12T04:15:50.216Z,3.00
2023-02-12T04:18:23.704Z,3.10
2023-02-12T04:21:16.624Z,2.80
2023-02-12T04:24:24.775Z,3.20
2023-02-12T04:27:35.069Z,3.22
2023-02-12T04:30:14.603Z,4.15
2023-02-12T04:32:54.101Z,4.30
2023-02-12T04:35:35.634Z,4.22
2023-02-12T04:38:17.125Z,4.53
2023-02-12T04:40:44.789Z,4.32
2023-02-12T04:43:11.661Z,5.47
2023-02-12T04:45:38.450Z,4.45
2023-02-12T04:48:06.600Z,3.63
2023-02-12T04:50:42.485Z,4.63
2023-02-12T04:53:10.240Z,4.13
2023-02-12T04:55:37.392Z,4.80
2023-02-12T04:58:05.397Z,4.45
2023-02-12T05:00:32.311Z,4.05
2023-02-12T05:02:59.117Z,4.63
2023-02-12T05:05:26.884Z,4.55
2023-02-12T05:07:53.743Z,4.30
2023-02-12T05:10:20.521Z,3.70
2023-02-12T05:12:47.391Z,4.75
2023-02-12T05:15:14.255Z,4.70
2023-02-12T05:17:40.973Z,5.00
2023-02-12T05:20:08.398Z,4.72
2023-02-12T05:22:35.162Z,4.35
2023-02-12T05:25:01.910Z,4.93
2023-02-12T05:27:28.672Z,4.50
2023-02-12T05:29:56.806Z,4.75
2023-02-12T05:32:24.106Z,5.03
2023-02-12T05:34:50.886Z,4.80
2023-02-12T05:37:17.606Z,5.00
2023-02-12T05:39:44.379Z,5.82
2023-02-12T05:42:11.219Z,5.45
2023-02-12T05:44:38.090Z,6.55
2023-02-12T05:47:04.879Z,6.68
2023-02-12T05:49:31.628Z,7.07
2023-02-12T05:51:58.380Z,6.65
2023-02-12T05:54:25.108Z,7.50
2023-02-12T05:56:51.786Z,6.10
2023-02-12T05:59:21.745Z,6.38
2023-02-12T06:01:50.436Z,6.47
2023-02-12T06:04:20.209Z,5.97
2023-02-12T06:06:47.166Z,5.63
2023-02-12T06:09:14.671Z,6.03
2023-02-12T06:11:42.024Z,6.30
2023-02-12T06:14:12.340Z,5.80
2023-02-12T06:16:39.323Z,5.97
2023-02-12T06:19:06.979Z,6.20
2023-02-12T06:21:34.321Z,6.45
2023-02-12T06:24:01.562Z,6.43
2023-02-12T06:26:28.684Z,7.03
2023-02-12T06:28:55.501Z,6.57
2023-02-12T06:31:27.244Z,7.20
2023-02-12T06:36:22.282Z,9.85
2023-02-12T06:38:49.561Z,9.13
2023-02-12T06:41:16.373Z,10.38
2023-02-12T06:43:43.592Z,9.70
2023-02-12T06:46:10.831Z,9.07
2023-02-12T06:48:37.518Z,9.85
2023-02-12T06:51:07.022Z,9.15
2023-02-12T06:53:35.214Z,9.40
2023-02-12T06:56:04.724Z,11.25
2023-02-12T06:58:31.458Z,9.05
2023-02-12T07:01:07.552Z,10.35
2023-02-12T07:03:34.341Z,9.27
2023-02-12T07:06:03.188Z,9.13
2023-02-12T07:08:29.882Z,8.80
2023-02-12T07:10:56.569Z,9.20
2023-02-12T07:13:23.293Z,10.60
2023-02-12T07:15:50.178Z,10.10
2023-02-12T07:18:17.066Z,10.18
2023-02-12T07:20:43.763Z,10.88
2023-02-12T07:23:13.691Z,10.30
2023-02-12T07:25:40.418Z,10.20
2023-02-12T07:28:07.267Z,10.90
2023-02-12T07:30:34.015Z,9.85
2023-02-12T07:33:00.744Z,10.00
2023-02-12T07:35:27.425Z,10.02
2023-02-12T07:37:54.104Z,9.63
2023-02-12T07:40:20.819Z,10.02
2023-02-12T07:42:53.623Z,10.27
2023-02-12T07:45:20.432Z,10.48
2023-02-12T07:47:47.147Z,10.30
2023-02-12T07:50:14.011Z,9.73
2023-02-12T07:52:40.712Z,9.55
2023-02-12T07:55:07.969Z,10.18
2023-02-12T07:57:35.966Z,9.10
2023-02-12T08:00:04.652Z,10.35
2023-02-12T08:02:31.442Z,10.45
2023-02-12T08:04:58.584Z,10.63
2023-02-12T08:07:25.865Z,11.20
2023-02-12T08:09:53.454Z,11.60
2023-02-12T08:12:20.339Z,11.10
2023-02-12T08:14:47.064Z,11.48
2023-02-12T08:17:13.815Z,10.57
2023-02-12T08:19:40.562Z,11.07
2023-02-12T08:22:07.607Z,10.40
2023-02-12T08:24:34.299Z,10.82
2023-02-12T08:27:01.054Z,11.68
2023-02-12T08:29:30.395Z,11.95
2023-02-12T08:32:02.513Z,11.45
2023-02-12T08:34:32.153Z,12.30
2023-02-12T08:36:59.947Z,11.55
2023-02-12T08:39:29.033Z,11.70
2023-02-12T08:41:57.408Z,12.20
2023-02-12T08:44:24.678Z,11.77
2023-02-12T08:46:52.831Z,11.75
2023-02-12T08:49:22.665Z,11.45
2023-02-12T08:51:52.778Z,10.82
2023-02-12T08:54:22.339Z,12.02
2023-02-12T08:56:49.467Z,11.88
2023-02-12T08:59:17.506Z,12.25
2023-02-12T09:01:45.124Z,12.88
2023-02-12T09:04:21.862Z,13.73
2023-02-12T09:06:50.010Z,13.50
2023-02-12T09:09:17.073Z,13.05
2023-02-12T09:11:44.754Z,12.93
2023-02-12T09:14:15.535Z,13.27
2023-02-12T09:16:42.455Z,12.70
2023-02-12T09:19:12.344Z,13.50
2023-02-12T09:21:39.132Z,13.00
2023-02-12T09:24:06.006Z,13.35
2023-02-12T09:26:32.756Z,13.32
2023-02-12T09:29:02.128Z,13.48
2023-02-12T09:31:30.599Z,12.90
2023-02-12T09:34:06.029Z,13.25
2023-02-12T09:36:34.428Z,13.27
2023-02-12T09:39:01.722Z,13.38
2023-02-12T09:41:38.073Z,13.52
2023-02-12T09:44:11.862Z,13.93
2023-02-12T09:47:02.822Z,13.00
2023-02-12T09:50:07.950Z,13.55
2023-02-12T09:52:36.347Z,13.00
2023-02-12T09:55:03.393Z,13.35
2023-02-12T09:57:34.594Z,14.30
2023-02-12T10:00:28.759Z,12.68
2023-02-12T10:02:55.557Z,13.40
2023-02-12T10:05:27.059Z,12.85
2023-02-12T10:07:59.196Z,13.38
2023-02-12T10:10:25.905Z,12.52
2023-02-12T10:13:06.234Z,13.13
2023-02-12T10:15:55.790Z,13.73
2023-02-12T10:18:34.408Z,13.45
2023-02-12T10:21:12.658Z,13.80
2023-02-12T10:23:54.173Z,12.98
2023-02-12T10:26:32.587Z,13.35
2023-02-12T10:29:09.456Z,14.40
2023-02-12T10:31:40.685Z,13.57
2023-02-12T10:34:30.320Z,13.13
2023-02-12T10:37:25.752Z,13.93
2023-02-12T10:40:30.000Z,14.82
2023-02-12T10:42:58.398Z,14.25
2023-02-12T10:45:29.250Z,15.15
2023-02-12T10:48:24.103Z,15.25
2023-02-12T10:50:53.575Z,15.18
2023-02-12T10:53:45.362Z,14.75
2023-02-12T10:56:12.110Z,12.90
2023-02-12T10:58:43.105Z,13.63
2023-02-12T11:01:31.047Z,12.77
2023-02-12T11:04:18.728Z,11.65
2023-02-12T11:07:07.963Z,11.60
2023-02-12T11:09:45.278Z,13.95
2023-02-12T11:12:18.160Z,13.57
2023-02-12T11:14:53.731Z,12.65
2023-02-12T11:17:26.839Z,12.95
2023-02-12T11:20:19.731Z,13.07
2023-02-12T11:22:56.796Z,11.95
2023-02-12T11:25:26.706Z,12.60
2023-02-12T11:28:12.483Z,12.82
2023-02-12T11:31:12.264Z,12.93
2023-02-12T11:33:39.292Z,13.77
2023-02-12T11:36:16.283Z,12.95
2023-02-12T11:38:52.961Z,13.18
2023-02-12T11:41:26.435Z,13.10
2023-02-12T11:43:53.875Z,12.63
2023-02-12T11:46:28.608Z,14.07
2023-02-12T11:48:57.392Z,13.55
2023-02-12T11:51:29.672Z,13.93
2023-02-12T11:54:00.464Z,14.13
2023-02-12T11:56:44.696Z,13.67
2023-02-12T11:59:36.555Z,13.43
2023-02-12T12:02:12.443Z,13.20
2023-02-12T12:04:41.565Z,12.65
2023-02-12T12:07:22.680Z,13.35
2023-02-12T12:10:05.358Z,12.93
2023-02-12T12:12:40.172Z,14.55
2023-02-12T12:15:38.064Z,13.98
2023-02-12T12:19:01.552Z,14.32
2023-02-12T12:21:36.788Z,14.35
2023-02-12T12:24:15.553Z,13.75
2023-02-12T12:26:47.606Z,13.57
2023-02-12T12:29:25.950Z,13.98
2023-02-12T12:32:00.711Z,13.15
2023-02-12T12:34:28.841Z,13.45
2023-02-12T12:37:20.460Z,12.77
2023-02-12T12:39:59.214Z,12.75
2023-02-12T12:42:55.737Z,13.05
2023-02-12T12:45:42.682Z,13.45
2023-02-12T12:48:35.239Z,12.23
2023-02-12T12:51:23.107Z,11.52
2023-02-12T12:53:58.814Z,11.65
2023-02-12T12:56:59.309Z,12.20
2023-02-12T12:59:41.360Z,10.88
2023-02-12T13:02:26.775Z,11.23
2023-02-12T13:04:56.329Z,11.40
2023-02-12T13:07:51.297Z,10.55
2023-02-12T13:10:48.185Z,11.20
2023-02-12T13:13:31.854Z,11.57
2023-02-12T13:16:20.592Z,11.68
2023-02-12T13:19:12.022Z,12.00
2023-02-12T13:21:53.817Z,13.02
2023-02-12T13:27:11.034Z,13.88
2023-02-12T13:29:44.155Z,13.73
2023-02-12T13:32:20.462Z,14.02
2023-02-12T13:34:47.672Z,14.65
2023-02-12T13:37:31.827Z,15.02
2023-02-12T13:40:02.612Z,14.23
2023-02-12T13:42:47.425Z,14.43
2023-02-12T13:45:43.534Z,15.68
2023-02-12T13:48:22.315Z,15.82
2023-02-12T13:51:04.135Z,14.20
2023-02-12T13:56:37.832Z,15.23
2023-02-12T13:59:04.743Z,15.10
2023-02-12T14:01:36.080Z,13.90
2023-02-12T14:04:21.161Z,14.70
2023-02-12T14:07:06.677Z,15.38
2023-02-12T14:09:45.360Z,16.00
2023-02-12T14:12:15.174Z,22.55
2023-02-12T14:14:46.068Z,45.80
2023-02-12T14:17:31.161Z,46.80
2023-02-12T14:19:57.897Z,29.55
2023-02-12T14:22:24.540Z,43.83
2023-02-12T14:24:53.478Z,22.38
2023-02-12T14:27:36.637Z,16.27
2023-02-12T14:30:09.915Z,16.45
2023-02-12T14:32:58.216Z,18.33
2023-02-12T14:35:37.176Z,22.73
2023-02-12T14:38:47.849Z,25.85
2023-02-12T14:41:41.540Z,22.48
2023-02-12T14:44:17.586Z,22.80
2023-02-12T14:46:53.175Z,25.45
2023-02-12T14:49:36.689Z,22.50
2023-02-12T14:52:15.993Z,23.48
2023-02-12T14:54:57.856Z,22.42
2023-02-12T15:00:27.479Z,29.50
2023-02-12T15:02:59.593Z,25.08
2023-02-12T15:05:32.388Z,27.65
2023-02-12T15:08:13.942Z,24.67
2023-02-12T15:10:48.785Z,25.60
2023-02-12T15:13:30.950Z,26.88
2023-02-12T15:16:14.534Z,25.27
2023-02-12T15:18:41.171Z,25.52
2023-02-12T15:21:20.986Z,25.48
2023-02-12T15:24:00.266Z,26.00
2023-02-12T15:26:28.934Z,24.52
2023-02-12T15:28:55.911Z,24.85
2023-02-12T15:31:27.978Z,22.45
2023-02-12T15:33:57.221Z,21.38
2023-02-12T15:36:26.993Z,17.92
2023-02-12T15:39:04.218Z,19.90
2023-02-12T15:41:33.834Z,19.00
2023-02-12T15:44:03.098Z,21.10
2023-02-12T15:46:30.182Z,20.90
2023-02-12T15:48:58.001Z,21.13
2023-02-12T15:51:37.046Z,23.27
2023-02-12T15:54:06.640Z,23.80
2023-02-12T15:56:36.438Z,23.13
2023-02-12T15:59:04.323Z,24.15
2023-02-12T16:01:35.117Z,23.92
2023-02-12T16:04:05.435Z,23.73
2023-02-12T16:06:34.662Z,22.80
2023-02-12T16:09:16.912Z,24.27
2023-02-12T16:11:46.106Z,23.85
2023-02-12T16:14:26.535Z,24.65
2023-02-12T16:16:57.032Z,23.90
2023-02-12T16:19:33.104Z,41.05
2023-02-12T16:22:09.694Z,25.58
2023-02-12T16:24:40.302Z,24.42
2023-02-12T16:27:22.992Z,24.98
2023-02-12T16:29:53.461Z,25.42
2023-02-12T16:32:40.877Z,24.42
2023-02-12T16:35:25.132Z,24.20
2023-02-12T16:37:58.544Z,25.20
2023-02-12T16:40:28.742Z,25.42
2023-02-12T16:43:04.564Z,25.35
2023-02-12T16:45:39.284Z,25.67
2023-02-12T16:48:09.075Z,24.63
2023-02-12T16:50:43.489Z,25.23
2023-02-12T16:53:32.872Z,26.40
2023-02-12T16:56:00.700Z,25.67
2023-02-12T16:58:28.638Z,25.73
2023-02-12T17:00:57.473Z,24.20
2023-02-12T17:03:25.402Z,23.27
2023-02-12T17:05:52.672Z,24.90
2023-02-12T17:08:22.033Z,25.05
2023-02-12T17:10:49.200Z,24.65
2023-02-12T17:13:17.119Z,24.65
2023-02-12T17:15:53.088Z,25.00
2023-02-12T17:18:20.635Z,24.33
2023-02-12T17:21:10.235Z,24.63
2023-02-12T17:23:36.948Z,25.02
2023-02-12T17:26:05.146Z,25.98
2023-02-12T17:28:32.273Z,23.67
2023-02-12T17:31:02.506Z,24.77
2023-02-12T17:33:29.360Z,24.50
2023-02-12T17:35:58.694Z,23.60
2023-02-12T17:38:26.340Z,25.33
2023-02-12T17:40:53.492Z,42.28
2023-02-12T17:43:20.486Z,28.25
2023-02-12T17:45:47.377Z,32.50
2023-02-12T17:48:15.792Z,26.20
2023-02-12T17:50:43.116Z,24.88
2023-02-12T17:53:10.582Z,25.33
2023-02-12T17:55:41.058Z,23.15
2023-02-12T17:58:08.504Z,25.75
2023-02-12T18:00:35.422Z,25.55
2023-02-12T18:03:02.199Z,25.58
2023-02-12T18:05:28.948Z,23.33
2023-02-12T18:07:57.075Z,24.55
2023-02-12T18:10:24.003Z,25.25
2023-02-12T18:12:50.816Z,26.13
2023-02-12T18:15:17.859Z,25.35
2023-02-12T18:17:44.607Z,25.13
2023-02-12T18:20:12.062Z,25.42
2023-02-12T18:22:38.779Z,27.80
2023-02-12T18:25:06.161Z,25.92
2023-02-12T18:27:32.850Z,25.77
2023-02-12T18:29:59.625Z,26.50
2023-02-12T18:32:26.413Z,27.17
2023-02-12T18:34:53.191Z,26.42
2023-02-12T18:37:19.915Z,26.13
2023-02-12T18:39:46.642Z,24.58
2023-02-12T18:42:13.334Z,25.65
2023-02-12T18:44:40.360Z,25.08
2023-02-12T18:47:07.042Z,27.02
2023-02-12T18:49:33.960Z,28.27
2023-02-12T18:52:02.031Z,28.05
2023-02-12T18:54:28.759Z,28.75
2023-02-12T18:56:55.572Z,27.77
2023-02-12T18:59:22.784Z,27.45
2023-02-12T19:01:50.857Z,29.38
2023-02-12T19:04:21.511Z,29.45
2023-02-12T19:06:50.730Z,28.35
2023-02-12T19:09:20.378Z,28.17
2023-02-12T19:11:49.402Z,28.73
2023-02-12T19:14:17.692Z,26.63
2023-02-12T19:16:45.164Z,29.70
2023-02-12T19:19:13.029Z,27.48
2023-02-12T19:21:40.062Z,26.65
2023-02-12T19:24:07.511Z,26.73
2023-02-12T19:26:35.922Z,27.95
2023-02-12T19:29:04.059Z,29.05
2023-02-12T19:31:33.933Z,29.58
2023-02-12T19:34:03.058Z,27.40
2023-02-12T19:36:32.741Z,28.38
2023-02-12T19:38:59.801Z,27.48
2023-02-12T19:41:28.678Z,28.95
2023-02-12T19:43:58.445Z,28.63
2023-02-12T19:46:27.219Z,28.45
2023-02-12T19:48:59.068Z,27.48
2023-02-12T19:51:26.354Z,28.13
2023-02-12T19:53:53.782Z,27.15
2023-02-12T19:56:20.554Z,27.63
2023-02-12T19:58:47.368Z,26.98
2023-02-12T20:01:19.769Z,27.60
2023-02-12T20:03:48.568Z,27.60
2023-02-12T20:06:19.463Z,27.05
2023-02-12T20:08:46.663Z,27.33
2023-02-12T20:11:16.257Z,26.95
2023-02-12T20:13:43.423Z,26.85
2023-02-12T20:16:16.166Z,27.38
2023-02-12T20:18:45.014Z,26.73
2023-02-12T20:21:15.287Z,26.38
2023-02-12T20:23:42.276Z,26.38
2023-02-12T20:26:11.572Z,27.70
2023-02-12T20:28:38.743Z,27.33
2023-02-12T20:31:32.914Z,25.60
2023-02-12T20:34:07.009Z,26.55
2023-02-12T20:36:36.681Z,25.52
2023-02-12T20:39:05.893Z,27.38
2023-02-12T20:41:34.783Z,27.05
2023-02-12T20:44:01.660Z,27.00
2023-02-12T20:46:28.552Z,27.13
2023-02-12T20:48:57.393Z,27.20
2023-02-12T20:51:27.995Z,28.20
2023-02-12T20:53:55.864Z,26.20
2023-02-12T20:56:26.238Z,26.13
2023-02-12T20:58:53.818Z,26.95
2023-02-12T21:01:31.585Z,25.65
2023-02-12T21:04:06.063Z,27.08
2023-02-12T21:06:33.474Z,27.17
2023-02-12T21:09:01.434Z,26.27
2023-02-12T21:11:29.449Z,25.65
2023-02-12T21:14:07.759Z,27.02
2023-02-12T21:16:45.425Z,25.65
2023-02-12T21:19:14.006Z,27.67
2023-02-12T21:21:41.878Z,26.85
2023-02-12T21:24:11.473Z,26.45
2023-02-12T21:26:38.177Z,27.58
2023-02-12T21:29:05.298Z,33.95
2023-02-12T21:31:34.811Z,37.70
2023-02-12T21:34:03.786Z,32.67
2023-02-12T21:36:36.888Z,34.10
2023-02-12T21:39:05.843Z,38.17
2023-02-12T21:41:35.592Z,32.47
2023-02-12T21:44:08.159Z,30.48
2023-02-12T21:46:35.906Z,33.10
2023-02-12T21:49:03.983Z,29.05
2023-02-12T21:51:33.697Z,28.50
2023-02-12T21:54:04.486Z,28.27
2023-02-12T21:56:31.711Z,28.07
2023-02-12T21:58:59.603Z,28.08
2023-02-12T22:01:29.644Z,29.05
2023-02-12T22:03:56.498Z,30.73
2023-02-12T22:06:25.047Z,27.90
2023-02-12T22:09:00.009Z,28.33
2023-02-12T22:11:27.125Z,28.45
2023-02-12T22:13:54.799Z,29.20
2023-02-12T22:16:23.953Z,27.98
2023-02-12T22:18:55.375Z,29.20
2023-02-12T22:21:24.350Z,30.40
2023-02-12T22:23:53.659Z,29.27
2023-02-12T22:26:27.100Z,29.25
2023-02-12T22:28:56.395Z,28.90
2023-02-12T22:31:29.671Z,28.40
2023-02-12T22:34:01.849Z,27.70
2023-02-12T22:36:29.257Z,29.38
2023-02-12T22:38:59.811Z,27.88
2023-02-12T22:41:27.799Z,28.33
2023-02-12T22:43:54.979Z,30.08
2023-02-12T22:46:23.268Z,30.15
2023-02-12T22:48:49.962Z,27.85
2023-02-12T22:51:21.290Z,30.33
2023-02-12T22:53:48.210Z,28.67
2023-02-12T22:56:15.652Z,29.42
2023-02-12T22:58:42.405Z,29.88
2023-02-12T23:01:11.622Z,31.20
2023-02-12T23:03:38.890Z,29.88
2023-02-12T23:06:07.893Z,29.80
2023-02-12T23:08:34.916Z,30.73
2023-02-12T23:11:02.032Z,28.27
2023-02-12T23:13:30.245Z,30.23
2023-02-12T23:15:58.002Z,30.23
2023-02-12T23:18:24.991Z,29.52
2023-02-12T23:20:52.314Z,28.75
2023-02-12T23:23:20.257Z,31.13
2023-02-12T23:25:47.518Z,30.23
2023-02-12T23:28:14.905Z,29.05
2023-02-12T23:30:41.717Z,30.30
2023-02-12T23:33:09.050Z,29.25
2023-02-12T23:35:35.771Z,29.42
2023-02-12T23:38:04.384Z,29.52
2023-02-12T23:40:32.588Z,29.48
2023-02-12T23:42:59.782Z,30.25
2023-02-12T23:45:27.172Z,28.88
2023-02-12T23:47:54.415Z,28.90
2023-02-12T23:50:21.578Z,29.83
2023-02-12T23:52:48.276Z,29.27
2023-02-12T23:55:15.095Z,29.83
2023-02-12T23:57:41.774Z,29.65
